sensor_id;sensor_type;location;lat;lon;timestamp;temperature;humidity
54938;DHT22;52756;52.826;6.214;2022-07-18T00:01:28;19.60;54.00
54938;DHT22;52756;52.826;6.214;2022-07-18T00:03:54;19.60;54.00
54938;DHT22;52756;52.826;6.214;2022-07-18T00:06:20;19.50;54.50
54938;DHT22;52756;52.826;6.214;2022-07-18T00:08:45;19.50;54.10
54938;DHT22;52756;52.826;6.214;2022-07-18T00:11:11;19.50;54.20
54938;DHT22;52756;52.826;6.214;2022-07-18T00:13:37;19.40;54.20
54938;DHT22;52756;52.826;6.214;2022-07-18T00:16:03;19.40;54.40
54938;DHT22;52756;52.826;6.214;2022-07-18T00:18:29;19.30;54.50
54938;DHT22;52756;52.826;6.214;2022-07-18T00:20:55;19.30;54.50
54938;DHT22;52756;52.826;6.214;2022-07-18T00:23:21;19.30;54.50
54938;DHT22;52756;52.826;6.214;2022-07-18T00:25:47;19.30;54.50
54938;DHT22;52756;52.826;6.214;2022-07-18T00:28:13;19.20;54.50
54938;DHT22;52756;52.826;6.214;2022-07-18T00:30:39;19.20;54.60
54938;DHT22;52756;52.826;6.214;2022-07-18T00:33:05;19.10;54.50
54938;DHT22;52756;52.826;6.214;2022-07-18T00:35:31;19.10;54.60
54938;DHT22;52756;52.826;6.214;2022-07-18T00:37:57;19.10;54.70
54938;DHT22;52756;52.826;6.214;2022-07-18T00:40:22;19.00;54.60
54938;DHT22;52756;52.826;6.214;2022-07-18T00:42:49;19.00;54.60
54938;DHT22;52756;52.826;6.214;2022-07-18T00:45:14;19.00;54.60
54938;DHT22;52756;52.826;6.214;2022-07-18T00:47:41;19.00;54.70
54938;DHT22;52756;52.826;6.214;2022-07-18T00:50:07;19.00;54.70
54938;DHT22;52756;52.826;6.214;2022-07-18T00:52:34;18.90;54.70
54938;DHT22;52756;52.826;6.214;2022-07-18T00:55:00;18.90;54.70
54938;DHT22;52756;52.826;6.214;2022-07-18T00:57:27;18.90;54.70
54938;DHT22;52756;52.826;6.214;2022-07-18T00:59:53;18.90;54.80
54938;DHT22;52756;52.826;6.214;2022-07-18T01:02:37;18.90;54.80
54938;DHT22;52756;52.826;6.214;2022-07-18T01:05:06;18.80;54.70
54938;DHT22;52756;52.826;6.214;2022-07-18T01:07:34;18.80;54.90
54938;DHT22;52756;52.826;6.214;2022-07-18T01:09:59;18.80;54.90
54938;DHT22;52756;52.826;6.214;2022-07-18T01:12:28;18.80;54.80
54938;DHT22;52756;52.826;6.214;2022-07-18T01:14:54;18.70;54.80
54938;DHT22;52756;52.826;6.214;2022-07-18T01:17:21;18.70;54.90
54938;DHT22;52756;52.826;6.214;2022-07-18T01:19:47;18.70;54.90
54938;DHT22;52756;52.826;6.214;2022-07-18T01:22:16;18.70;54.90
54938;DHT22;52756;52.826;6.214;2022-07-18T01:24:43;18.60;54.80
54938;DHT22;52756;52.826;6.214;2022-07-18T01:27:13;18.60;54.80
54938;DHT22;52756;52.826;6.214;2022-07-18T01:29:39;18.60;54.80
54938;DHT22;52756;52.826;6.214;2022-07-18T01:32:08;18.50;54.80
54938;DHT22;52756;52.826;6.214;2022-07-18T01:34:35;18.50;54.80
54938;DHT22;52756;52.826;6.214;2022-07-18T01:37:01;18.50;54.90
54938;DHT22;52756;52.826;6.214;2022-07-18T01:39:27;18.40;54.90
54938;DHT22;52756;52.826;6.214;2022-07-18T01:42:05;18.40;55.00
54938;DHT22;52756;52.826;6.214;2022-07-18T01:44:32;18.30;55.00
54938;DHT22;52756;52.826;6.214;2022-07-18T01:46:58;18.30;55.00
54938;DHT22;52756;52.826;6.214;2022-07-18T01:49:25;18.20;55.10
54938;DHT22;52756;52.826;6.214;2022-07-18T01:51:53;18.20;55.20
54938;DHT22;52756;52.826;6.214;2022-07-18T01:54:22;18.20;55.20
54938;DHT22;52756;52.826;6.214;2022-07-18T01:56:48;18.20;55.20
54938;DHT22;52756;52.826;6.214;2022-07-18T01:59:13;18.10;55.20
54938;DHT22;52756;52.826;6.214;2022-07-18T02:01:39;18.10;55.20
54938;DHT22;52756;52.826;6.214;2022-07-18T02:04:05;18.10;55.20
54938;DHT22;52756;52.826;6.214;2022-07-18T02:06:30;18.10;55.20
54938;DHT22;52756;52.826;6.214;2022-07-18T02:08:56;18.10;55.30
54938;DHT22;52756;52.826;6.214;2022-07-18T02:11:22;18.00;55.60
54938;DHT22;52756;52.826;6.214;2022-07-18T02:13:47;18.00;55.30
54938;DHT22;52756;52.826;6.214;2022-07-18T02:16:13;18.00;55.40
54938;DHT22;52756;52.826;6.214;2022-07-18T02:18:39;17.90;55.20
54938;DHT22;52756;52.826;6.214;2022-07-18T02:21:05;17.90;55.10
54938;DHT22;52756;52.826;6.214;2022-07-18T02:23:31;17.80;55.20
54938;DHT22;52756;52.826;6.214;2022-07-18T02:25:56;17.70;55.30
54938;DHT22;52756;52.826;6.214;2022-07-18T02:28:22;17.70;55.50
54938;DHT22;52756;52.826;6.214;2022-07-18T02:30:48;17.60;55.60
54938;DHT22;52756;52.826;6.214;2022-07-18T02:33:15;17.60;55.60
54938;DHT22;52756;52.826;6.214;2022-07-18T02:35:41;17.60;55.70
54938;DHT22;52756;52.826;6.214;2022-07-18T02:38:07;17.60;55.80
54938;DHT22;52756;52.826;6.214;2022-07-18T02:40:33;17.50;55.90
54938;DHT22;52756;52.826;6.214;2022-07-18T02:42:59;17.60;56.00
54938;DHT22;52756;52.826;6.214;2022-07-18T02:45:25;17.50;55.90
54938;DHT22;52756;52.826;6.214;2022-07-18T02:47:50;17.50;55.90
54938;DHT22;52756;52.826;6.214;2022-07-18T02:50:16;17.50;56.00
54938;DHT22;52756;52.826;6.214;2022-07-18T02:52:43;17.50;56.20
54938;DHT22;52756;52.826;6.214;2022-07-18T02:55:10;17.50;56.20
54938;DHT22;52756;52.826;6.214;2022-07-18T02:57:36;17.40;56.10
54938;DHT22;52756;52.826;6.214;2022-07-18T03:00:04;17.40;56.20
54938;DHT22;52756;52.826;6.214;2022-07-18T03:02:30;17.40;56.20
54938;DHT22;52756;52.826;6.214;2022-07-18T03:04:56;17.30;56.20
54938;DHT22;52756;52.826;6.214;2022-07-18T03:07:22;17.30;56.20
54938;DHT22;52756;52.826;6.214;2022-07-18T03:09:47;17.30;56.20
54938;DHT22;52756;52.826;6.214;2022-07-18T03:12:13;17.30;56.20
54938;DHT22;52756;52.826;6.214;2022-07-18T03:14:39;17.30;56.10
54938;DHT22;52756;52.826;6.214;2022-07-18T03:17:05;17.30;56.10
54938;DHT22;52756;52.826;6.214;2022-07-18T03:19:31;17.30;56.10
54938;DHT22;52756;52.826;6.214;2022-07-18T03:21:56;17.30;56.20
54938;DHT22;52756;52.826;6.214;2022-07-18T03:24:22;17.30;56.20
54938;DHT22;52756;52.826;6.214;2022-07-18T03:26:48;17.30;56.30
54938;DHT22;52756;52.826;6.214;2022-07-18T03:29:13;17.30;56.20
54938;DHT22;52756;52.826;6.214;2022-07-18T03:31:39;17.30;56.30
54938;DHT22;52756;52.826;6.214;2022-07-18T03:34:05;17.30;56.30
54938;DHT22;52756;52.826;6.214;2022-07-18T03:36:31;17.30;56.30
54938;DHT22;52756;52.826;6.214;2022-07-18T03:38:57;17.20;56.40
54938;DHT22;52756;52.826;6.214;2022-07-18T03:41:23;17.20;56.80
54938;DHT22;52756;52.826;6.214;2022-07-18T03:43:49;17.20;56.40
54938;DHT22;52756;52.826;6.214;2022-07-18T03:46:14;17.20;56.50
54938;DHT22;52756;52.826;6.214;2022-07-18T03:48:40;17.20;56.50
54938;DHT22;52756;52.826;6.214;2022-07-18T03:51:06;17.20;56.60
54938;DHT22;52756;52.826;6.214;2022-07-18T03:53:32;17.20;56.60
54938;DHT22;52756;52.826;6.214;2022-07-18T03:55:59;17.20;56.60
54938;DHT22;52756;52.826;6.214;2022-07-18T03:58:25;17.10;56.70
54938;DHT22;52756;52.826;6.214;2022-07-18T04:00:51;17.10;57.30
54938;DHT22;52756;52.826;6.214;2022-07-18T04:03:17;17.10;56.90
54938;DHT22;52756;52.826;6.214;2022-07-18T04:05:44;17.10;56.90
54938;DHT22;52756;52.826;6.214;2022-07-18T04:08:10;17.10;57.00
54938;DHT22;52756;52.826;6.214;2022-07-18T04:10:35;17.10;57.30
54938;DHT22;52756;52.826;6.214;2022-07-18T04:13:05;17.10;57.60
54938;DHT22;52756;52.826;6.214;2022-07-18T04:15:32;17.00;57.50
54938;DHT22;52756;52.826;6.214;2022-07-18T04:17:58;17.00;57.50
54938;DHT22;52756;52.826;6.214;2022-07-18T04:20:24;17.00;57.60
54938;DHT22;52756;52.826;6.214;2022-07-18T04:22:53;17.00;57.70
54938;DHT22;52756;52.826;6.214;2022-07-18T04:25:20;17.00;57.90
54938;DHT22;52756;52.826;6.214;2022-07-18T04:27:47;17.00;58.10
54938;DHT22;52756;52.826;6.214;2022-07-18T04:30:14;17.00;58.10
54938;DHT22;52756;52.826;6.214;2022-07-18T04:32:41;17.00;58.10
54938;DHT22;52756;52.826;6.214;2022-07-18T04:35:07;17.00;58.10
54938;DHT22;52756;52.826;6.214;2022-07-18T04:37:33;17.00;58.10
54938;DHT22;52756;52.826;6.214;2022-07-18T04:40:00;16.90;57.80
54938;DHT22;52756;52.826;6.214;2022-07-18T04:42:26;17.00;58.20
54938;DHT22;52756;52.826;6.214;2022-07-18T04:44:52;17.00;57.70
54938;DHT22;52756;52.826;6.214;2022-07-18T04:47:17;17.00;57.70
54938;DHT22;52756;52.826;6.214;2022-07-18T04:49:43;17.00;57.80
54938;DHT22;52756;52.826;6.214;2022-07-18T04:52:09;17.00;58.00
54938;DHT22;52756;52.826;6.214;2022-07-18T04:54:35;17.10;57.90
54938;DHT22;52756;52.826;6.214;2022-07-18T04:57:00;17.10;57.80
54938;DHT22;52756;52.826;6.214;2022-07-18T04:59:26;17.10;57.80
54938;DHT22;52756;52.826;6.214;2022-07-18T05:01:52;17.10;57.80
54938;DHT22;52756;52.826;6.214;2022-07-18T05:04:17;17.10;58.00
54938;DHT22;52756;52.826;6.214;2022-07-18T05:06:43;17.10;58.60
54938;DHT22;52756;52.826;6.214;2022-07-18T05:09:08;17.10;58.80
54938;DHT22;52756;52.826;6.214;2022-07-18T05:11:34;17.10;58.80
54938;DHT22;52756;52.826;6.214;2022-07-18T05:14:00;17.10;59.10
54938;DHT22;52756;52.826;6.214;2022-07-18T05:16:26;17.10;58.70
54938;DHT22;52756;52.826;6.214;2022-07-18T05:18:51;17.20;58.20
54938;DHT22;52756;52.826;6.214;2022-07-18T05:21:17;17.20;58.00
54938;DHT22;52756;52.826;6.214;2022-07-18T05:23:43;17.20;57.70
54938;DHT22;52756;52.826;6.214;2022-07-18T05:26:11;17.30;57.90
54938;DHT22;52756;52.826;6.214;2022-07-18T05:28:37;17.30;58.00
54938;DHT22;52756;52.826;6.214;2022-07-18T05:31:02;17.40;57.90
54938;DHT22;52756;52.826;6.214;2022-07-18T05:33:28;17.50;57.90
54938;DHT22;52756;52.826;6.214;2022-07-18T05:35:54;17.50;57.60
54938;DHT22;52756;52.826;6.214;2022-07-18T05:38:20;17.60;57.50
54938;DHT22;52756;52.826;6.214;2022-07-18T05:40:45;17.70;57.30
54938;DHT22;52756;52.826;6.214;2022-07-18T05:43:11;17.80;57.10
54938;DHT22;52756;52.826;6.214;2022-07-18T05:45:37;17.90;57.00
54938;DHT22;52756;52.826;6.214;2022-07-18T05:48:03;17.90;56.40
54938;DHT22;52756;52.826;6.214;2022-07-18T05:50:29;18.00;56.20
54938;DHT22;52756;52.826;6.214;2022-07-18T05:52:55;18.00;55.90
54938;DHT22;52756;52.826;6.214;2022-07-18T05:55:21;18.10;55.60
54938;DHT22;52756;52.826;6.214;2022-07-18T05:57:46;18.10;55.50
54938;DHT22;52756;52.826;6.214;2022-07-18T06:00:13;18.20;55.50
54938;DHT22;52756;52.826;6.214;2022-07-18T06:02:38;18.20;55.30
54938;DHT22;52756;52.826;6.214;2022-07-18T06:05:05;18.30;55.30
54938;DHT22;52756;52.826;6.214;2022-07-18T06:07:31;18.30;55.30
54938;DHT22;52756;52.826;6.214;2022-07-18T06:09:57;18.30;55.20
54938;DHT22;52756;52.826;6.214;2022-07-18T06:12:23;18.40;55.10
54938;DHT22;52756;52.826;6.214;2022-07-18T06:14:49;18.40;55.00
54938;DHT22;52756;52.826;6.214;2022-07-18T06:17:14;18.40;55.10
54938;DHT22;52756;52.826;6.214;2022-07-18T06:19:40;18.50;55.20
54938;DHT22;52756;52.826;6.214;2022-07-18T06:22:07;18.50;55.00
54938;DHT22;52756;52.826;6.214;2022-07-18T06:24:33;18.60;54.80
54938;DHT22;52756;52.826;6.214;2022-07-18T06:26:59;18.60;54.80
54938;DHT22;52756;52.826;6.214;2022-07-18T06:29:25;18.70;55.10
54938;DHT22;52756;52.826;6.214;2022-07-18T06:31:50;18.70;55.30
54938;DHT22;52756;52.826;6.214;2022-07-18T06:34:16;18.80;55.20
54938;DHT22;52756;52.826;6.214;2022-07-18T06:36:42;18.90;55.20
54938;DHT22;52756;52.826;6.214;2022-07-18T06:39:07;18.90;54.80
54938;DHT22;52756;52.826;6.214;2022-07-18T06:41:40;19.00;55.20
54938;DHT22;52756;52.826;6.214;2022-07-18T06:44:06;19.10;54.70
54938;DHT22;52756;52.826;6.214;2022-07-18T06:46:32;19.30;54.40
54938;DHT22;52756;52.826;6.214;2022-07-18T06:48:57;19.40;54.20
54938;DHT22;52756;52.826;6.214;2022-07-18T06:51:23;19.50;54.50
54938;DHT22;52756;52.826;6.214;2022-07-18T06:53:50;19.70;54.40
54938;DHT22;52756;52.826;6.214;2022-07-18T06:56:17;20.00;54.20
54938;DHT22;52756;52.826;6.214;2022-07-18T06:58:42;20.10;53.30
54938;DHT22;52756;52.826;6.214;2022-07-18T07:01:14;20.40;53.10
54938;DHT22;52756;52.826;6.214;2022-07-18T07:03:41;20.50;52.70
54938;DHT22;52756;52.826;6.214;2022-07-18T07:06:07;20.80;52.20
54938;DHT22;52756;52.826;6.214;2022-07-18T07:08:34;21.00;51.40
54938;DHT22;52756;52.826;6.214;2022-07-18T07:11:00;21.30;51.00
54938;DHT22;52756;52.826;6.214;2022-07-18T07:13:26;21.50;50.30
54938;DHT22;52756;52.826;6.214;2022-07-18T07:15:51;21.80;49.80
54938;DHT22;52756;52.826;6.214;2022-07-18T07:18:17;22.00;49.80
54938;DHT22;52756;52.826;6.214;2022-07-18T07:20:43;22.30;49.50
54938;DHT22;52756;52.826;6.214;2022-07-18T07:23:09;22.60;48.90
54938;DHT22;52756;52.826;6.214;2022-07-18T07:25:36;22.80;48.30
54938;DHT22;52756;52.826;6.214;2022-07-18T07:28:03;23.00;47.30
54938;DHT22;52756;52.826;6.214;2022-07-18T07:30:29;23.20;47.10
54938;DHT22;52756;52.826;6.214;2022-07-18T07:32:55;23.50;46.40
54938;DHT22;52756;52.826;6.214;2022-07-18T07:35:21;23.70;46.30
54938;DHT22;52756;52.826;6.214;2022-07-18T07:37:51;24.00;46.00
54938;DHT22;52756;52.826;6.214;2022-07-18T07:40:17;24.30;45.40
54938;DHT22;52756;52.826;6.214;2022-07-18T07:42:44;24.50;44.70
54938;DHT22;52756;52.826;6.214;2022-07-18T07:45:11;24.70;44.50
54938;DHT22;52756;52.826;6.214;2022-07-18T07:47:37;25.00;43.70
54938;DHT22;52756;52.826;6.214;2022-07-18T07:50:04;25.20;43.70
54938;DHT22;52756;52.826;6.214;2022-07-18T07:52:30;25.40;43.10
54938;DHT22;52756;52.826;6.214;2022-07-18T07:54:56;25.50;42.70
54938;DHT22;52756;52.826;6.214;2022-07-18T07:57:22;25.70;42.50
54938;DHT22;52756;52.826;6.214;2022-07-18T07:59:48;25.80;41.50
54938;DHT22;52756;52.826;6.214;2022-07-18T08:02:14;26.00;41.60
54938;DHT22;52756;52.826;6.214;2022-07-18T08:04:44;26.20;41.70
54938;DHT22;52756;52.826;6.214;2022-07-18T08:07:09;26.40;40.90
54938;DHT22;52756;52.826;6.214;2022-07-18T08:09:36;26.60;40.80
54938;DHT22;52756;52.826;6.214;2022-07-18T08:12:03;26.70;40.20
54938;DHT22;52756;52.826;6.214;2022-07-18T08:14:28;26.90;39.70
54938;DHT22;52756;52.826;6.214;2022-07-18T08:16:54;27.00;39.60
54938;DHT22;52756;52.826;6.214;2022-07-18T08:19:20;27.20;39.20
54938;DHT22;52756;52.826;6.214;2022-07-18T08:21:45;27.30;38.30
54938;DHT22;52756;52.826;6.214;2022-07-18T08:24:11;27.40;38.30
54938;DHT22;52756;52.826;6.214;2022-07-18T08:26:37;27.60;38.40
54938;DHT22;52756;52.826;6.214;2022-07-18T08:29:05;27.80;38.30
54938;DHT22;52756;52.826;6.214;2022-07-18T08:31:31;27.90;38.00
54938;DHT22;52756;52.826;6.214;2022-07-18T08:33:57;28.00;37.20
54938;DHT22;52756;52.826;6.214;2022-07-18T08:36:23;28.20;37.60
54938;DHT22;52756;52.826;6.214;2022-07-18T08:38:50;28.20;37.50
54938;DHT22;52756;52.826;6.214;2022-07-18T08:41:17;28.30;37.20
54938;DHT22;52756;52.826;6.214;2022-07-18T08:43:46;28.40;37.10
54938;DHT22;52756;52.826;6.214;2022-07-18T08:46:12;28.60;37.10
54938;DHT22;52756;52.826;6.214;2022-07-18T08:48:38;28.70;36.90
54938;DHT22;52756;52.826;6.214;2022-07-18T08:51:05;28.80;36.90
54938;DHT22;52756;52.826;6.214;2022-07-18T08:53:31;29.00;36.70
54938;DHT22;52756;52.826;6.214;2022-07-18T08:55:59;29.10;36.60
54938;DHT22;52756;52.826;6.214;2022-07-18T08:58:25;29.30;36.60
54938;DHT22;52756;52.826;6.214;2022-07-18T09:00:51;29.40;36.90
54938;DHT22;52756;52.826;6.214;2022-07-18T09:03:17;29.50;37.00
54938;DHT22;52756;52.826;6.214;2022-07-18T09:05:42;29.70;36.80
54938;DHT22;52756;52.826;6.214;2022-07-18T09:13:21;30.10;36.40
54938;DHT22;52756;52.826;6.214;2022-07-18T09:18:31;30.60;36.10
54938;DHT22;52756;52.826;6.214;2022-07-18T09:21:02;30.70;35.50
54938;DHT22;52756;52.826;6.214;2022-07-18T09:23:34;30.80;34.90
54938;DHT22;52756;52.826;6.214;2022-07-18T09:26:00;30.90;34.50
54938;DHT22;52756;52.826;6.214;2022-07-18T09:28:27;30.90;34.40
54938;DHT22;52756;52.826;6.214;2022-07-18T09:30:53;30.90;34.50
54938;DHT22;52756;52.826;6.214;2022-07-18T09:33:19;31.00;34.50
54938;DHT22;52756;52.826;6.214;2022-07-18T09:35:52;31.10;33.90
54938;DHT22;52756;52.826;6.214;2022-07-18T09:38:23;31.20;34.10
54938;DHT22;52756;52.826;6.214;2022-07-18T09:40:54;31.30;34.10
54938;DHT22;52756;52.826;6.214;2022-07-18T09:43:22;31.40;34.00
54938;DHT22;52756;52.826;6.214;2022-07-18T09:45:50;31.40;34.20
54938;DHT22;52756;52.826;6.214;2022-07-18T09:48:21;31.50;34.10
54938;DHT22;52756;52.826;6.214;2022-07-18T09:50:54;31.60;33.80
54938;DHT22;52756;52.826;6.214;2022-07-18T09:53:25;31.70;33.40
54938;DHT22;52756;52.826;6.214;2022-07-18T09:56:00;31.70;32.90
54938;DHT22;52756;52.826;6.214;2022-07-18T09:58:31;31.80;32.70
54938;DHT22;52756;52.826;6.214;2022-07-18T10:00:59;31.80;33.00
54938;DHT22;52756;52.826;6.214;2022-07-18T10:03:26;31.90;32.70
54938;DHT22;52756;52.826;6.214;2022-07-18T10:05:53;31.90;32.50
54938;DHT22;52756;52.826;6.214;2022-07-18T10:08:21;32.00;32.00
54938;DHT22;52756;52.826;6.214;2022-07-18T10:10:49;32.10;31.80
54938;DHT22;52756;52.826;6.214;2022-07-18T10:13:17;32.10;31.20
54938;DHT22;52756;52.826;6.214;2022-07-18T10:15:45;32.10;31.80
54938;DHT22;52756;52.826;6.214;2022-07-18T10:18:17;32.20;31.10
54938;DHT22;52756;52.826;6.214;2022-07-18T10:26:17;32.20;31.80
54938;DHT22;52756;52.826;6.214;2022-07-18T10:34:26;32.40;32.30
54938;DHT22;52756;52.826;6.214;2022-07-18T10:39:34;32.50;31.80
54938;DHT22;52756;52.826;6.214;2022-07-18T11:03:04;32.60;30.60
54938;DHT22;52756;52.826;6.214;2022-07-18T11:18:23;32.50;31.10
54938;DHT22;52756;52.826;6.214;2022-07-18T11:20:49;32.50;31.50
54938;DHT22;52756;52.826;6.214;2022-07-18T11:23:16;32.60;31.90
54938;DHT22;52756;52.826;6.214;2022-07-18T11:25:42;32.60;31.40
54938;DHT22;52756;52.826;6.214;2022-07-18T11:28:09;32.60;31.20
54938;DHT22;52756;52.826;6.214;2022-07-18T11:30:36;32.60;31.20
54938;DHT22;52756;52.826;6.214;2022-07-18T11:33:02;32.60;31.60
54938;DHT22;52756;52.826;6.214;2022-07-18T11:35:29;32.60;31.70
54938;DHT22;52756;52.826;6.214;2022-07-18T11:37:54;32.60;31.50
54938;DHT22;52756;52.826;6.214;2022-07-18T11:40:21;32.60;31.60
54938;DHT22;52756;52.826;6.214;2022-07-18T11:42:47;32.70;31.60
54938;DHT22;52756;52.826;6.214;2022-07-18T11:45:15;32.70;30.80
54938;DHT22;52756;52.826;6.214;2022-07-18T11:47:53;32.70;30.40
54938;DHT22;52756;52.826;6.214;2022-07-18T11:50:34;32.80;30.60
54938;DHT22;52756;52.826;6.214;2022-07-18T11:53:00;32.80;31.30
54938;DHT22;52756;52.826;6.214;2022-07-18T11:55:37;32.80;31.60
54938;DHT22;52756;52.826;6.214;2022-07-18T11:58:10;32.90;31.40
54938;DHT22;52756;52.826;6.214;2022-07-18T12:00:36;32.90;31.60
54938;DHT22;52756;52.826;6.214;2022-07-18T12:03:15;33.00;31.50
54938;DHT22;52756;52.826;6.214;2022-07-18T12:05:47;33.20;31.10
54938;DHT22;52756;52.826;6.214;2022-07-18T12:11:17;33.30;31.60
54938;DHT22;52756;52.826;6.214;2022-07-18T12:16:32;33.50;31.30
54938;DHT22;52756;52.826;6.214;2022-07-18T12:18:59;33.50;31.30
54938;DHT22;52756;52.826;6.214;2022-07-18T12:21:50;33.50;31.30
54938;DHT22;52756;52.826;6.214;2022-07-18T12:24:26;33.50;31.30
54938;DHT22;52756;52.826;6.214;2022-07-18T12:32:29;33.60;31.00
54938;DHT22;52756;52.826;6.214;2022-07-18T12:35:00;33.60;31.40
54938;DHT22;52756;52.826;6.214;2022-07-18T12:37:27;33.60;31.40
54938;DHT22;52756;52.826;6.214;2022-07-18T12:40:03;33.60;31.30
54938;DHT22;52756;52.826;6.214;2022-07-18T12:45:04;33.60;31.40
54938;DHT22;52756;52.826;6.214;2022-07-18T12:47:30;33.60;31.50
54938;DHT22;52756;52.826;6.214;2022-07-18T12:49:56;33.60;31.60
54938;DHT22;52756;52.826;6.214;2022-07-18T12:52:22;33.60;31.30
54938;DHT22;52756;52.826;6.214;2022-07-18T12:54:49;33.50;31.20
54938;DHT22;52756;52.826;6.214;2022-07-18T12:57:15;33.50;31.20
54938;DHT22;52756;52.826;6.214;2022-07-18T12:59:42;33.40;31.00
54938;DHT22;52756;52.826;6.214;2022-07-18T13:02:08;33.30;31.10
54938;DHT22;52756;52.826;6.214;2022-07-18T13:04:33;33.20;31.10
54938;DHT22;52756;52.826;6.214;2022-07-18T13:06:59;33.10;31.20
54938;DHT22;52756;52.826;6.214;2022-07-18T13:09:25;33.00;31.40
54938;DHT22;52756;52.826;6.214;2022-07-18T13:11:50;32.90;32.00
54938;DHT22;52756;52.826;6.214;2022-07-18T13:14:17;32.90;31.80
54938;DHT22;52756;52.826;6.214;2022-07-18T13:16:43;32.80;31.80
54938;DHT22;52756;52.826;6.214;2022-07-18T13:19:14;32.70;32.00
54938;DHT22;52756;52.826;6.214;2022-07-18T13:21:41;32.70;31.80
54938;DHT22;52756;52.826;6.214;2022-07-18T13:24:07;32.60;31.80
54938;DHT22;52756;52.826;6.214;2022-07-18T13:26:32;32.50;31.80
54938;DHT22;52756;52.826;6.214;2022-07-18T13:28:58;32.50;31.80
54938;DHT22;52756;52.826;6.214;2022-07-18T13:31:24;32.40;32.20
54938;DHT22;52756;52.826;6.214;2022-07-18T13:33:50;32.30;32.40
54938;DHT22;52756;52.826;6.214;2022-07-18T13:36:17;32.30;32.40
54938;DHT22;52756;52.826;6.214;2022-07-18T13:38:42;32.30;32.80
54938;DHT22;52756;52.826;6.214;2022-07-18T13:41:09;32.20;32.70
54938;DHT22;52756;52.826;6.214;2022-07-18T13:43:35;32.20;32.70
54938;DHT22;52756;52.826;6.214;2022-07-18T13:46:09;32.20;32.90
54938;DHT22;52756;52.826;6.214;2022-07-18T13:48:35;32.10;32.80
54938;DHT22;52756;52.826;6.214;2022-07-18T13:51:01;32.00;32.70
54938;DHT22;52756;52.826;6.214;2022-07-18T13:53:27;32.00;33.10
54938;DHT22;52756;52.826;6.214;2022-07-18T13:55:53;32.00;32.80
54938;DHT22;52756;52.826;6.214;2022-07-18T13:58:19;32.00;32.40
54938;DHT22;52756;52.826;6.214;2022-07-18T14:00:45;32.00;32.50
54938;DHT22;52756;52.826;6.214;2022-07-18T14:03:10;32.00;32.40
54938;DHT22;52756;52.826;6.214;2022-07-18T14:05:38;32.00;32.80
54938;DHT22;52756;52.826;6.214;2022-07-18T14:08:05;32.00;32.40
54938;DHT22;52756;52.826;6.214;2022-07-18T14:10:31;32.00;32.10
54938;DHT22;52756;52.826;6.214;2022-07-18T14:12:57;32.00;32.60
54938;DHT22;52756;52.826;6.214;2022-07-18T14:15:22;32.10;32.20
54938;DHT22;52756;52.826;6.214;2022-07-18T14:17:48;32.10;32.20
54938;DHT22;52756;52.826;6.214;2022-07-18T14:20:14;32.10;31.50
54938;DHT22;52756;52.826;6.214;2022-07-18T14:22:42;32.20;32.00
54938;DHT22;52756;52.826;6.214;2022-07-18T14:25:10;32.20;31.90
54938;DHT22;52756;52.826;6.214;2022-07-18T14:27:36;32.30;31.50
54938;DHT22;52756;52.826;6.214;2022-07-18T14:30:03;32.30;31.10
54938;DHT22;52756;52.826;6.214;2022-07-18T14:32:29;32.40;30.90
54938;DHT22;52756;52.826;6.214;2022-07-18T14:34:55;32.40;31.10
54938;DHT22;52756;52.826;6.214;2022-07-18T14:37:20;32.40;31.00
54938;DHT22;52756;52.826;6.214;2022-07-18T14:39:46;32.50;30.60
54938;DHT22;52756;52.826;6.214;2022-07-18T14:42:12;32.50;30.70
54938;DHT22;52756;52.826;6.214;2022-07-18T14:44:39;32.50;30.90
54938;DHT22;52756;52.826;6.214;2022-07-18T14:47:05;32.60;31.00
54938;DHT22;52756;52.826;6.214;2022-07-18T14:49:31;32.70;31.00
54938;DHT22;52756;52.826;6.214;2022-07-18T14:51:57;32.70;31.30
54938;DHT22;52756;52.826;6.214;2022-07-18T14:54:25;32.70;31.10
54938;DHT22;52756;52.826;6.214;2022-07-18T14:56:51;32.80;31.40
54938;DHT22;52756;52.826;6.214;2022-07-18T14:59:18;32.90;31.50
54938;DHT22;52756;52.826;6.214;2022-07-18T15:01:44;32.90;31.70
54938;DHT22;52756;52.826;6.214;2022-07-18T15:04:09;32.90;31.80
54938;DHT22;52756;52.826;6.214;2022-07-18T15:06:35;32.90;31.50
54938;DHT22;52756;52.826;6.214;2022-07-18T15:09:01;33.00;31.60
54938;DHT22;52756;52.826;6.214;2022-07-18T15:11:26;33.00;31.80
54938;DHT22;52756;52.826;6.214;2022-07-18T15:13:52;33.00;31.80
54938;DHT22;52756;52.826;6.214;2022-07-18T15:16:18;33.10;31.60
54938;DHT22;52756;52.826;6.214;2022-07-18T15:18:44;33.10;31.50
54938;DHT22;52756;52.826;6.214;2022-07-18T15:21:09;33.20;31.30
54938;DHT22;52756;52.826;6.214;2022-07-18T15:23:35;33.20;31.60
54938;DHT22;52756;52.826;6.214;2022-07-18T15:26:01;33.20;31.10
54938;DHT22;52756;52.826;6.214;2022-07-18T15:28:27;33.20;31.10
54938;DHT22;52756;52.826;6.214;2022-07-18T15:30:52;33.20;31.20
54938;DHT22;52756;52.826;6.214;2022-07-18T15:33:18;33.20;31.20
54938;DHT22;52756;52.826;6.214;2022-07-18T15:35:44;33.20;31.10
54938;DHT22;52756;52.826;6.214;2022-07-18T15:38:10;33.20;30.80
54938;DHT22;52756;52.826;6.214;2022-07-18T15:40:36;33.20;30.70
54938;DHT22;52756;52.826;6.214;2022-07-18T15:43:02;33.20;31.10
54938;DHT22;52756;52.826;6.214;2022-07-18T15:45:28;33.20;31.10
54938;DHT22;52756;52.826;6.214;2022-07-18T15:47:54;33.20;31.10
54938;DHT22;52756;52.826;6.214;2022-07-18T15:50:20;33.10;31.10
54938;DHT22;52756;52.826;6.214;2022-07-18T15:52:46;33.20;31.20
54938;DHT22;52756;52.826;6.214;2022-07-18T15:55:12;33.20;31.20
54938;DHT22;52756;52.826;6.214;2022-07-18T15:57:38;33.20;31.10
54938;DHT22;52756;52.826;6.214;2022-07-18T16:00:05;33.20;31.30
54938;DHT22;52756;52.826;6.214;2022-07-18T16:02:31;33.20;31.20
54938;DHT22;52756;52.826;6.214;2022-07-18T16:04:57;33.20;31.10
54938;DHT22;52756;52.826;6.214;2022-07-18T16:07:23;33.20;31.20
54938;DHT22;52756;52.826;6.214;2022-07-18T16:09:49;33.20;31.30
54938;DHT22;52756;52.826;6.214;2022-07-18T16:12:14;33.20;31.50
54938;DHT22;52756;52.826;6.214;2022-07-18T16:14:40;33.20;31.20
54938;DHT22;52756;52.826;6.214;2022-07-18T16:17:06;33.20;31.10
54938;DHT22;52756;52.826;6.214;2022-07-18T16:19:32;33.20;30.70
54938;DHT22;52756;52.826;6.214;2022-07-18T16:21:57;33.20;30.70
54938;DHT22;52756;52.826;6.214;2022-07-18T16:24:24;33.20;31.20
54938;DHT22;52756;52.826;6.214;2022-07-18T16:26:50;33.10;31.10
54938;DHT22;52756;52.826;6.214;2022-07-18T16:29:16;33.10;31.10
54938;DHT22;52756;52.826;6.214;2022-07-18T16:31:42;33.10;31.30
54938;DHT22;52756;52.826;6.214;2022-07-18T16:34:07;33.10;31.60
54938;DHT22;52756;52.826;6.214;2022-07-18T16:36:33;33.10;31.50